createdAt,value
2016-12-30T00:01:07.338Z,0
2016-12-30T00:02:18.079Z,0
2016-12-30T00:03:28.819Z,0
2016-12-30T00:04:39.549Z,0
2016-12-30T00:05:49.878Z,0
2016-12-30T00:07:00.618Z,0
2016-12-30T00:08:11.360Z,0
2016-12-30T00:09:21.689Z,0
2016-12-30T00:10:32.422Z,0
2016-12-30T00:11:42.355Z,0
2016-12-30T00:12:52.682Z,0
2016-12-30T00:14:03.440Z,0
2016-12-30T00:15:13.763Z,0
2016-12-30T00:16:23.696Z,0
2016-12-30T00:17:34.035Z,0
2016-12-30T00:18:44.832Z,0
2016-12-30T00:19:55.159Z,0
2016-12-30T00:21:05.885Z,0
2016-12-30T00:22:16.202Z,0
2016-12-30T00:23:26.554Z,0
2016-12-30T00:24:36.486Z,0
2016-12-30T00:25:46.807Z,0
2016-12-30T00:26:57.158Z,0
2016-12-30T00:28:07.894Z,0
2016-12-30T00:29:17.836Z,0
2016-12-30T00:30:28.627Z,0
2016-12-30T00:31:39.350Z,0
2016-12-30T00:32:50.080Z,0
2016-12-30T00:34:00.809Z,0
2016-12-30T00:35:11.555Z,0
2016-12-30T00:36:22.294Z,0
2016-12-30T00:37:33.033Z,0
2016-12-30T00:38:43.763Z,0
2016-12-30T00:39:54.556Z,0
2016-12-30T00:41:05.267Z,0
2016-12-30T00:42:14.816Z,0
2016-12-30T00:43:25.142Z,0
2016-12-30T00:44:35.872Z,0
2016-12-30T00:45:46.211Z,0
2016-12-30T00:46:56.943Z,0
2016-12-30T00:48:07.279Z,0
2016-12-30T00:49:17.210Z,0
2016-12-30T00:50:27.945Z,0
2016-12-30T00:51:38.287Z,0
2016-12-30T00:52:48.617Z,0
2016-12-30T00:53:58.547Z,0
2016-12-30T00:55:08.886Z,0
2016-12-30T00:56:19.606Z,0
2016-12-30T00:57:29.935Z,0
2016-12-30T00:58:40.665Z,0
2016-12-30T00:59:51.378Z,0
2016-12-30T01:01:00.934Z,0
2016-12-30T01:02:11.663Z,0
2016-12-30T01:03:21.209Z,0
2016-12-30T01:04:32.335Z,0
2016-12-30T01:05:42.684Z,0
2016-12-30T01:06:53.020Z,0
2016-12-30T01:08:02.968Z,0
2016-12-30T01:09:13.407Z,0
2016-12-30T01:10:24.143Z,0
2016-12-30T01:11:34.860Z,0
2016-12-30T01:12:45.590Z,0
2016-12-30T01:13:56.325Z,0
2016-12-30T01:15:07.062Z,0
2016-12-30T01:16:17.788Z,0
2016-12-30T01:17:27.728Z,0
2016-12-30T01:18:38.060Z,0
2016-12-30T01:19:48.015Z,0
2016-12-30T01:20:58.345Z,0
2016-12-30T01:22:09.068Z,0
2016-12-30T01:23:19.952Z,0
2016-12-30T01:24:30.690Z,0
2016-12-30T01:25:41.405Z,0
2016-12-30T01:26:51.740Z,0
2016-12-30T01:28:02.463Z,0
2016-12-30T01:29:13.180Z,0
2016-12-30T01:30:23.896Z,0
2016-12-30T01:31:34.617Z,0
2016-12-30T01:32:44.962Z,0
2016-12-30T01:33:55.286Z,0
2016-12-30T01:35:05.230Z,0
2016-12-30T01:36:15.951Z,0
2016-12-30T01:37:26.283Z,0
2016-12-30T01:38:37.007Z,0
2016-12-30T01:39:47.733Z,0
2016-12-30T01:40:58.060Z,0
2016-12-30T01:42:08.783Z,0
2016-12-30T01:43:19.501Z,0
2016-12-30T01:44:29.848Z,0
2016-12-30T01:45:40.172Z,0
2016-12-30T01:46:50.094Z,0
2016-12-30T01:48:00.415Z,0
2016-12-30T01:49:10.363Z,0
2016-12-30T01:50:21.096Z,0
2016-12-30T01:51:32.562Z,0
2016-12-30T01:52:43.288Z,0
2016-12-30T01:53:53.631Z,0
2016-12-30T01:55:04.351Z,0
2016-12-30T01:56:14.712Z,0
2016-12-30T01:57:25.430Z,0
2016-12-30T01:58:35.765Z,0
2016-12-30T01:59:46.088Z,0
2016-12-30T02:00:56.018Z,0
2016-12-30T02:02:06.366Z,0
2016-12-30T02:03:17.083Z,0
2016-12-30T02:04:27.006Z,0
2016-12-30T02:05:37.342Z,0
2016-12-30T02:06:48.059Z,0
2016-12-30T02:07:58.389Z,0
2016-12-30T02:09:08.722Z,0
2016-12-30T02:10:19.057Z,0
2016-12-30T02:11:29.775Z,0
2016-12-30T02:12:40.498Z,0
2016-12-30T02:13:51.217Z,0
2016-12-30T02:15:01.561Z,0
2016-12-30T02:16:11.495Z,0
2016-12-30T02:17:22.216Z,0
2016-12-30T02:18:32.936Z,0
2016-12-30T02:19:43.262Z,0
2016-12-30T02:20:53.991Z,0
2016-12-30T02:22:04.714Z,0
2016-12-30T02:23:15.447Z,0
2016-12-30T02:24:25.783Z,0
2016-12-30T02:25:36.109Z,0
2016-12-30T02:26:46.829Z,0
2016-12-30T02:27:57.556Z,0
2016-12-30T02:29:08.273Z,0
2016-12-30T02:30:19.011Z,0
2016-12-30T02:31:29.738Z,0
2016-12-30T02:32:40.465Z,0
2016-12-30T02:33:51.177Z,0
2016-12-30T02:35:01.504Z,0
2016-12-30T02:36:11.827Z,0
2016-12-30T02:37:21.756Z,0
2016-12-30T02:38:32.476Z,0
2016-12-30T02:39:42.835Z,0
2016-12-30T02:40:53.555Z,0
2016-12-30T02:42:04.281Z,0
2016-12-30T02:43:14.998Z,0
2016-12-30T02:44:25.318Z,0
2016-12-30T02:45:36.073Z,0
2016-12-30T02:46:46.409Z,0
2016-12-30T02:47:56.739Z,0
2016-12-30T02:49:07.497Z,0
2016-12-30T02:50:17.833Z,0
2016-12-30T02:51:28.195Z,0
2016-12-30T02:52:38.134Z,0
2016-12-30T02:53:48.457Z,0
2016-12-30T02:54:59.190Z,0
2016-12-30T02:56:09.516Z,0
2016-12-30T02:57:19.452Z,0
2016-12-30T02:58:30.182Z,0
2016-12-30T02:59:40.502Z,0
2016-12-30T03:00:50.816Z,0
2016-12-30T03:02:01.554Z,0
2016-12-30T03:03:11.890Z,0
2016-12-30T03:04:22.600Z,0
2016-12-30T03:05:33.317Z,0
2016-12-30T03:06:42.866Z,0
2016-12-30T03:07:53.589Z,0
2016-12-30T03:09:04.345Z,0
2016-12-30T03:10:14.665Z,0
2016-12-30T03:11:25.013Z,0
2016-12-30T03:12:35.727Z,0
2016-12-30T03:13:46.443Z,0
2016-12-30T03:14:56.754Z,0
2016-12-30T03:16:07.474Z,0
2016-12-30T03:17:18.200Z,0
2016-12-30T03:18:28.927Z,0
2016-12-30T03:19:39.653Z,0
2016-12-30T03:20:49.986Z,0
2016-12-30T03:22:00.300Z,0
2016-12-30T03:23:10.620Z,0
2016-12-30T03:24:21.339Z,0
2016-12-30T03:25:31.666Z,0
2016-12-30T03:26:41.993Z,0
2016-12-30T03:27:52.736Z,0
2016-12-30T03:29:03.455Z,0
2016-12-30T03:30:13.794Z,0
2016-12-30T03:31:24.124Z,0
2016-12-30T03:32:34.860Z,0
2016-12-30T03:33:45.173Z,0
2016-12-30T03:34:55.496Z,0
2016-12-30T03:36:06.216Z,0
2016-12-30T03:37:16.936Z,0
2016-12-30T03:38:27.687Z,0
2016-12-30T03:39:38.411Z,0
2016-12-30T03:40:48.335Z,0
2016-12-30T03:41:59.048Z,0
2016-12-30T03:43:08.978Z,0
2016-12-30T03:44:18.904Z,0
2016-12-30T03:45:29.227Z,0
2016-12-30T03:46:39.553Z,0
2016-12-30T03:47:49.493Z,0
2016-12-30T03:48:59.825Z,0
2016-12-30T03:50:10.581Z,0
2016-12-30T03:51:21.297Z,0
2016-12-30T03:52:31.624Z,0
2016-12-30T03:53:42.332Z,0
2016-12-30T03:54:52.664Z,0
2016-12-30T03:56:03.378Z,0
2016-12-30T03:57:14.446Z,0
2016-12-30T03:58:24.824Z,0
2016-12-30T03:59:35.569Z,0
2016-12-30T04:00:46.293Z,0
2016-12-30T04:01:57.009Z,0
2016-12-30T04:03:06.929Z,0
2016-12-30T04:04:17.262Z,0
2016-12-30T04:05:27.583Z,0
2016-12-30T04:06:37.502Z,0
2016-12-30T04:07:48.222Z,0
2016-12-30T04:08:58.545Z,0
2016-12-30T04:10:09.253Z,0
2016-12-30T04:11:19.965Z,0
2016-12-30T04:12:30.696Z,0
2016-12-30T04:13:41.439Z,0
2016-12-30T04:14:51.756Z,0
2016-12-30T04:16:02.469Z,0
2016-12-30T04:17:13.180Z,0
2016-12-30T04:18:23.909Z,0
2016-12-30T04:19:34.229Z,0
2016-12-30T04:20:44.975Z,0
2016-12-30T04:21:55.714Z,0
2016-12-30T04:23:06.439Z,0
2016-12-30T04:24:16.879Z,0
2016-12-30T04:25:27.608Z,0
2016-12-30T04:26:37.935Z,0
2016-12-30T04:27:48.655Z,0
2016-12-30T04:28:59.387Z,0
2016-12-30T04:30:10.117Z,0
2016-12-30T04:31:20.863Z,0
2016-12-30T04:32:31.202Z,0
2016-12-30T04:33:41.919Z,0
2016-12-30T04:34:52.655Z,0
2016-12-30T04:36:02.984Z,0
2016-12-30T04:37:13.708Z,0
2016-12-30T04:38:24.063Z,0
2016-12-30T04:39:34.389Z,0
2016-12-30T04:40:44.338Z,0
2016-12-30T04:41:55.061Z,0
2016-12-30T04:43:04.988Z,0
2016-12-30T04:44:14.527Z,0
2016-12-30T04:45:24.850Z,0
2016-12-30T04:46:35.468Z,0
2016-12-30T04:47:46.188Z,0
2016-12-30T04:48:56.911Z,0
2016-12-30T04:50:06.838Z,0
2016-12-30T04:51:17.183Z,0
2016-12-30T04:52:27.499Z,0
2016-12-30T04:53:37.810Z,0
2016-12-30T04:54:48.524Z,0
2016-12-30T04:55:59.247Z,0
2016-12-30T04:57:09.964Z,0
2016-12-30T04:58:20.284Z,0
2016-12-30T04:59:30.214Z,0
2016-12-30T05:00:40.975Z,0
2016-12-30T05:01:51.692Z,0
2016-12-30T05:03:02.442Z,0
2016-12-30T05:04:13.170Z,0
2016-12-30T05:05:23.500Z,0
2016-12-30T05:06:34.217Z,0
2016-12-30T05:07:44.928Z,0
2016-12-30T05:08:54.854Z,0
2016-12-30T05:10:05.171Z,0
2016-12-30T05:11:15.894Z,0
2016-12-30T05:12:26.604Z,0
2016-12-30T05:13:36.540Z,0
2016-12-30T05:14:47.257Z,0
2016-12-30T05:15:58.013Z,0
2016-12-30T05:17:08.726Z,0
2016-12-30T05:18:19.450Z,0
2016-12-30T05:19:30.169Z,0
2016-12-30T05:20:40.883Z,0
2016-12-30T05:21:51.622Z,0
2016-12-30T05:23:02.342Z,0
2016-12-30T05:24:12.665Z,0
2016-12-30T05:25:23.395Z,0
2016-12-30T05:26:34.108Z,0
2016-12-30T05:27:44.428Z,0
2016-12-30T05:28:55.142Z,0
2016-12-30T05:30:05.858Z,0
2016-12-30T05:31:16.579Z,0
2016-12-30T05:32:26.908Z,0
2016-12-30T05:33:37.234Z,0
2016-12-30T05:34:47.567Z,0
2016-12-30T05:35:57.881Z,0
2016-12-30T05:37:07.811Z,0
2016-12-30T05:38:18.128Z,0
2016-12-30T05:39:28.854Z,0
2016-12-30T05:40:38.812Z,0
2016-12-30T05:41:49.539Z,0
2016-12-30T05:42:59.478Z,0
2016-12-30T05:44:09.420Z,0
2016-12-30T05:45:20.141Z,0
2016-12-30T05:46:30.861Z,0
2016-12-30T05:47:40.787Z,0
2016-12-30T05:48:51.116Z,0
2016-12-30T05:50:01.437Z,0
2016-12-30T05:51:12.164Z,0
2016-12-30T05:52:22.489Z,0
2016-12-30T05:53:32.809Z,0
2016-12-30T05:54:43.533Z,0
2016-12-30T05:55:54.255Z,0
2016-12-30T05:57:05.427Z,0
2016-12-30T05:58:15.353Z,0
2016-12-30T05:59:25.709Z,0
2016-12-30T06:00:36.051Z,0
2016-12-30T06:01:45.587Z,0
2016-12-30T06:02:55.523Z,0
2016-12-30T06:04:06.259Z,0
2016-12-30T06:05:16.187Z,0
2016-12-30T06:06:26.537Z,0
2016-12-30T06:07:37.267Z,0
2016-12-30T06:08:47.584Z,0
2016-12-30T06:09:58.313Z,0
2016-12-30T06:11:07.849Z,0
2016-12-30T06:12:18.173Z,0
2016-12-30T06:13:28.899Z,0
2016-12-30T06:14:39.626Z,0
2016-12-30T06:15:50.355Z,0
2016-12-30T06:17:00.691Z,0
2016-12-30T06:18:10.624Z,0
2016-12-30T06:19:21.354Z,0
2016-12-30T06:20:31.290Z,0
2016-12-30T06:21:41.219Z,0
2016-12-30T06:22:51.538Z,0
2016-12-30T06:24:02.250Z,0
2016-12-30T06:25:12.567Z,0
2016-12-30T06:26:23.296Z,0
2016-12-30T06:27:34.016Z,0
2016-12-30T06:28:43.936Z,0
2016-12-30T06:29:54.710Z,0
2016-12-30T06:31:04.637Z,0
2016-12-30T06:32:15.373Z,0
2016-12-30T06:33:25.705Z,0
2016-12-30T06:34:35.651Z,0
2016-12-30T06:35:45.969Z,0
2016-12-30T06:36:56.682Z,0
2016-12-30T06:38:07.057Z,0
2016-12-30T06:39:17.030Z,0
2016-12-30T06:40:27.373Z,0
2016-12-30T06:41:37.456Z,0
2016-12-30T06:42:48.179Z,0
2016-12-30T06:43:58.115Z,0
2016-12-30T06:45:08.052Z,0
2016-12-30T06:46:18.378Z,0
2016-12-30T06:47:29.121Z,0
2016-12-30T06:48:38.657Z,0
2016-12-30T06:49:49.373Z,0
2016-12-30T06:50:59.296Z,0
2016-12-30T06:52:10.029Z,0
2016-12-30T06:53:19.972Z,0
2016-12-30T06:54:30.298Z,0
2016-12-30T06:55:40.228Z,4
2016-12-30T06:56:50.957Z,12
2016-12-30T06:58:01.303Z,16
2016-12-30T06:59:12.024Z,20
2016-12-30T07:00:21.556Z,24
2016-12-30T07:01:32.311Z,24
2016-12-30T07:02:41.853Z,28
2016-12-30T07:03:52.193Z,32
2016-12-30T07:05:02.920Z,40
2016-12-30T07:06:13.239Z,44
2016-12-30T07:07:23.962Z,48
2016-12-30T07:08:34.285Z,56
2016-12-30T07:09:44.618Z,68
2016-12-30T07:10:55.352Z,72
2016-12-30T07:12:05.290Z,80
2016-12-30T07:13:16.007Z,88
2016-12-30T07:14:26.333Z,100
2016-12-30T07:15:37.056Z,108
2016-12-30T07:16:47.383Z,120
2016-12-30T07:17:57.709Z,132
2016-12-30T07:19:08.449Z,144
2016-12-30T07:20:19.175Z,160
2016-12-30T07:21:29.898Z,172
2016-12-30T07:22:39.828Z,184
2016-12-30T07:23:50.551Z,200
2016-12-30T07:25:01.001Z,212
2016-12-30T07:26:11.735Z,232
2016-12-30T07:27:21.726Z,248
2016-12-30T07:28:31.269Z,260
2016-12-30T07:29:42.001Z,280
2016-12-30T07:30:52.714Z,296
2016-12-30T07:32:02.650Z,312
2016-12-30T07:33:13.380Z,332
2016-12-30T07:34:23.706Z,352
2016-12-30T07:35:34.430Z,364
2016-12-30T07:36:45.153Z,384
2016-12-30T07:37:55.872Z,400
2016-12-30T07:39:06.609Z,420
2016-12-30T07:40:16.970Z,440
2016-12-30T07:41:27.338Z,460
2016-12-30T07:42:38.059Z,476
2016-12-30T07:43:47.994Z,492
2016-12-30T07:44:57.917Z,512
2016-12-30T07:46:08.653Z,532
2016-12-30T07:47:19.380Z,548
2016-12-30T07:48:30.116Z,564
2016-12-30T07:49:40.459Z,588
2016-12-30T07:50:50.391Z,600
2016-12-30T07:52:01.105Z,624
2016-12-30T07:53:11.834Z,636
2016-12-30T07:54:22.586Z,660
2016-12-30T07:55:32.907Z,672
2016-12-30T07:56:43.288Z,692
2016-12-30T07:57:53.613Z,708
2016-12-30T07:59:03.546Z,724
2016-12-30T08:00:14.278Z,740
2016-12-30T08:01:25.006Z,756
2016-12-30T08:02:35.748Z,772
2016-12-30T08:03:46.068Z,792
2016-12-30T08:04:56.411Z,804
2016-12-30T08:06:06.753Z,820
2016-12-30T08:07:17.095Z,840
2016-12-30T08:08:27.430Z,852
2016-12-30T08:09:37.770Z,864
2016-12-30T08:10:48.493Z,876
2016-12-30T08:11:59.267Z,888
2016-12-30T08:13:09.992Z,904
2016-12-30T08:14:20.333Z,920
2016-12-30T08:15:31.070Z,932
2016-12-30T08:16:41.402Z,944
2016-12-30T08:17:52.123Z,956
2016-12-30T08:19:02.874Z,972
2016-12-30T08:20:13.610Z,980
2016-12-30T08:21:24.327Z,996
2016-12-30T08:22:34.662Z,1008
2016-12-30T08:23:45.383Z,1024
2016-12-30T08:24:56.103Z,1032
2016-12-30T08:26:06.827Z,1044
2016-12-30T08:27:17.198Z,1052
2016-12-30T08:28:27.940Z,1064
2016-12-30T08:29:38.295Z,1080
2016-12-30T08:30:48.672Z,1088
2016-12-30T08:31:58.657Z,1100
2016-12-30T08:33:08.986Z,1108
2016-12-30T08:34:19.712Z,1116
2016-12-30T08:35:29.651Z,1128
2016-12-30T08:36:39.994Z,1136
2016-12-30T08:37:50.727Z,1152
2016-12-30T08:39:01.066Z,1160
2016-12-30T08:40:11.796Z,1172
2016-12-30T08:41:22.515Z,1180
2016-12-30T08:42:33.262Z,1184
2016-12-30T08:43:43.994Z,1192
2016-12-30T08:44:54.352Z,1208
2016-12-30T08:46:05.073Z,1212
2016-12-30T08:47:15.811Z,1216
2016-12-30T08:48:26.534Z,1228
2016-12-30T08:49:36.919Z,1236
2016-12-30T08:50:47.245Z,1248
2016-12-30T08:51:57.994Z,1252
2016-12-30T08:53:08.708Z,1264
2016-12-30T08:54:19.040Z,1272
2016-12-30T08:55:29.766Z,1280
2016-12-30T08:56:40.490Z,1280
2016-12-30T08:57:51.219Z,1292
2016-12-30T08:59:01.942Z,1296
2016-12-30T09:00:12.682Z,1300
2016-12-30T09:01:23.030Z,1308
2016-12-30T09:02:33.750Z,1312
2016-12-30T09:03:44.080Z,1320
2016-12-30T09:04:54.406Z,1324
2016-12-30T09:06:05.132Z,1328
2016-12-30T09:07:15.861Z,1332
2016-12-30T09:08:26.205Z,1344
2016-12-30T09:09:36.533Z,1344
2016-12-30T09:10:46.857Z,1352
2016-12-30T09:11:57.183Z,1360
2016-12-30T09:13:07.516Z,1364
2016-12-30T09:14:17.853Z,1368
2016-12-30T09:15:28.581Z,1380
2016-12-30T09:16:39.308Z,1376
2016-12-30T09:17:49.636Z,1392
2016-12-30T09:19:00.368Z,1396
2016-12-30T09:20:10.691Z,1400
2016-12-30T09:21:21.030Z,1404
2016-12-30T09:22:31.756Z,1408
2016-12-30T09:23:42.076Z,1420
2016-12-30T09:24:52.806Z,1420
2016-12-30T09:26:03.140Z,1424
2016-12-30T09:27:13.507Z,1432
2016-12-30T09:28:23.440Z,1440
2016-12-30T09:29:33.766Z,1452
2016-12-30T09:30:44.096Z,1456
2016-12-30T09:31:54.863Z,1464
2016-12-30T09:33:05.609Z,1472
2016-12-30T09:34:15.933Z,1472
2016-12-30T09:35:26.274Z,1480
2016-12-30T09:36:37.004Z,1484
2016-12-30T09:37:47.740Z,1488
2016-12-30T09:38:58.070Z,1484
2016-12-30T09:40:08.461Z,1488
2016-12-30T09:41:19.194Z,1488
2016-12-30T09:42:29.951Z,1492
2016-12-30T09:43:40.694Z,1500
2016-12-30T09:44:51.027Z,1504
2016-12-30T09:46:01.368Z,1500
2016-12-30T09:47:12.111Z,1504
2016-12-30T09:48:22.435Z,1508
2016-12-30T09:49:33.174Z,1512
2016-12-30T09:50:43.661Z,1516
2016-12-30T09:51:54.377Z,1528
2016-12-30T09:53:04.726Z,1524
2016-12-30T09:54:15.488Z,1536
2016-12-30T09:55:25.827Z,1528
2016-12-30T09:56:36.591Z,1528
2016-12-30T09:57:47.336Z,1524
2016-12-30T09:58:58.067Z,1528
2016-12-30T10:00:08.796Z,1540
2016-12-30T10:01:19.530Z,1532
2016-12-30T10:02:29.865Z,1536
2016-12-30T10:03:39.804Z,1532
2016-12-30T10:04:50.531Z,1536
2016-12-30T10:06:00.864Z,1548
2016-12-30T10:07:11.204Z,1540
2016-12-30T10:08:21.965Z,1548
2016-12-30T10:09:32.742Z,1544
2016-12-30T10:10:42.672Z,1552
2016-12-30T10:11:53.395Z,1548
2016-12-30T10:13:04.137Z,1556
2016-12-30T10:14:14.879Z,1564
2016-12-30T10:15:25.225Z,1572
2016-12-30T10:16:35.571Z,1460
2016-12-30T10:17:46.298Z,56
2016-12-30T10:18:57.040Z,56
2016-12-30T10:20:07.775Z,56
2016-12-30T10:21:18.515Z,56
2016-12-30T10:22:29.248Z,56
2016-12-30T10:23:39.177Z,56
2016-12-30T10:24:48.723Z,56
2016-12-30T10:25:59.452Z,52
2016-12-30T10:27:09.789Z,52
2016-12-30T10:28:20.521Z,56
2016-12-30T10:29:30.851Z,56
2016-12-30T10:30:41.199Z,52
2016-12-30T10:31:51.930Z,52
2016-12-30T10:33:02.297Z,56
2016-12-30T10:34:13.033Z,56
2016-12-30T10:35:23.360Z,56
2016-12-30T10:36:33.693Z,56
2016-12-30T10:37:44.447Z,56
2016-12-30T10:38:55.181Z,56
2016-12-30T10:40:05.513Z,56
2016-12-30T10:41:15.846Z,56
2016-12-30T10:42:25.786Z,56
2016-12-30T10:43:36.537Z,56
2016-12-30T10:44:46.905Z,56
2016-12-30T10:45:56.870Z,56
2016-12-30T10:47:07.244Z,56
2016-12-30T10:48:17.974Z,56
2016-12-30T10:49:28.310Z,56
2016-12-30T10:50:37.840Z,56
2016-12-30T10:51:47.776Z,56
2016-12-30T10:52:58.499Z,56
2016-12-30T10:54:09.267Z,56
2016-12-30T10:55:19.198Z,60
2016-12-30T10:56:29.526Z,56
2016-12-30T10:57:40.256Z,60
2016-12-30T10:58:50.646Z,56
2016-12-30T11:00:00.979Z,60
2016-12-30T11:01:11.856Z,56
2016-12-30T11:02:22.582Z,56
2016-12-30T11:03:32.518Z,56
2016-12-30T11:04:42.057Z,56
2016-12-30T11:05:52.768Z,56
2016-12-30T11:07:02.705Z,56
2016-12-30T11:08:13.444Z,60
2016-12-30T11:09:24.182Z,56
2016-12-30T11:10:34.969Z,60
2016-12-30T11:11:45.696Z,56
2016-12-30T11:12:56.035Z,56
2016-12-30T11:14:06.374Z,56
2016-12-30T11:15:16.729Z,56
2016-12-30T11:16:27.069Z,56
2016-12-30T11:17:37.801Z,56
2016-12-30T11:18:48.530Z,56
2016-12-30T11:19:58.876Z,56
2016-12-30T11:21:09.232Z,56
2016-12-30T11:22:19.189Z,56
2016-12-30T11:23:28.722Z,56
2016-12-30T11:24:39.051Z,56
2016-12-30T11:25:49.792Z,52
2016-12-30T11:26:59.726Z,56
2016-12-30T11:28:10.178Z,56
2016-12-30T11:29:20.901Z,52
2016-12-30T11:30:31.243Z,52
2016-12-30T11:31:41.573Z,56
2016-12-30T11:32:51.918Z,56
2016-12-30T11:34:02.254Z,56
2016-12-30T11:35:12.609Z,56
2016-12-30T11:36:23.335Z,52
2016-12-30T11:37:34.078Z,52
2016-12-30T11:38:44.811Z,52
2016-12-30T11:39:55.546Z,56
2016-12-30T11:41:05.869Z,56
2016-12-30T11:42:16.215Z,56
2016-12-30T11:43:26.176Z,52
2016-12-30T11:44:36.114Z,52
2016-12-30T11:45:46.842Z,52
2016-12-30T11:46:56.387Z,52
2016-12-30T11:48:07.142Z,52
2016-12-30T11:49:17.482Z,52
2016-12-30T11:50:28.211Z,56
2016-12-30T11:51:38.572Z,56
2016-12-30T11:52:49.299Z,56
2016-12-30T11:54:00.022Z,52
2016-12-30T11:55:10.348Z,52
2016-12-30T11:56:21.078Z,52
2016-12-30T11:57:31.408Z,52
2016-12-30T11:58:41.765Z,52
2016-12-30T11:59:52.476Z,52
2016-12-30T12:01:02.811Z,52
2016-12-30T12:02:13.685Z,52
2016-12-30T12:03:24.040Z,52
2016-12-30T12:04:34.769Z,52
2016-12-30T12:05:44.699Z,52
2016-12-30T12:06:55.436Z,52
2016-12-30T12:08:05.767Z,52
2016-12-30T12:09:16.485Z,52
2016-12-30T12:10:26.812Z,52
2016-12-30T12:11:36.786Z,52
2016-12-30T12:12:47.112Z,52
2016-12-30T12:13:57.448Z,52
2016-12-30T12:15:07.781Z,52
2016-12-30T12:16:18.124Z,52
2016-12-30T12:17:28.065Z,52
2016-12-30T12:18:38.795Z,52
2016-12-30T12:19:49.525Z,52
2016-12-30T12:21:00.257Z,52
2016-12-30T12:22:10.990Z,48
2016-12-30T12:23:21.337Z,48
2016-12-30T12:24:32.063Z,48
2016-12-30T12:25:42.398Z,52
2016-12-30T12:26:53.160Z,52
2016-12-30T12:28:03.486Z,52
2016-12-30T12:29:14.274Z,52
2016-12-30T12:30:24.997Z,52
2016-12-30T12:31:35.754Z,48
2016-12-30T12:32:46.146Z,48
2016-12-30T12:33:56.869Z,48
2016-12-30T12:35:07.643Z,48
2016-12-30T12:36:17.570Z,52
2016-12-30T12:37:28.305Z,52
2016-12-30T12:38:38.632Z,52
2016-12-30T12:39:48.974Z,48
2016-12-30T12:40:59.311Z,48
2016-12-30T12:42:09.304Z,48
2016-12-30T12:43:20.037Z,48
2016-12-30T12:44:30.007Z,48
2016-12-30T12:45:40.344Z,44
2016-12-30T12:46:50.673Z,48
2016-12-30T12:48:01.419Z,48
2016-12-30T12:49:12.168Z,48
2016-12-30T12:50:22.913Z,48
2016-12-30T12:51:33.634Z,48
2016-12-30T12:52:44.391Z,44
2016-12-30T12:53:55.127Z,44
2016-12-30T12:55:05.880Z,44
2016-12-30T12:56:16.618Z,48
2016-12-30T12:57:27.338Z,48
2016-12-30T12:58:37.294Z,48
2016-12-30T12:59:48.036Z,44
2016-12-30T13:00:58.384Z,44
2016-12-30T13:02:08.715Z,44
2016-12-30T13:03:19.479Z,44
2016-12-30T13:04:29.809Z,44
2016-12-30T13:05:40.551Z,44
2016-12-30T13:06:50.891Z,44
2016-12-30T13:08:01.633Z,44
2016-12-30T13:09:11.963Z,44
2016-12-30T13:10:22.286Z,44
2016-12-30T13:11:32.625Z,40
2016-12-30T13:12:42.601Z,40
2016-12-30T13:13:52.935Z,40
2016-12-30T13:15:03.656Z,44
2016-12-30T13:16:14.414Z,44
2016-12-30T13:17:24.743Z,40
2016-12-30T13:18:35.076Z,40
2016-12-30T13:19:45.054Z,40
2016-12-30T13:20:55.386Z,40
2016-12-30T13:22:06.414Z,40
2016-12-30T13:23:16.743Z,40
2016-12-30T13:24:26.692Z,40
2016-12-30T13:25:37.040Z,40
2016-12-30T13:26:47.790Z,40
2016-12-30T13:27:57.742Z,36
2016-12-30T13:29:08.477Z,36
2016-12-30T13:30:19.217Z,36
2016-12-30T13:31:29.571Z,40
2016-12-30T13:32:39.901Z,36
2016-12-30T13:33:50.243Z,36
2016-12-30T13:35:00.566Z,36
2016-12-30T13:36:11.300Z,32
2016-12-30T13:37:22.039Z,36
2016-12-30T13:38:32.783Z,36
2016-12-30T13:39:43.513Z,36
2016-12-30T13:40:53.849Z,32
2016-12-30T13:42:04.579Z,32
2016-12-30T13:43:15.321Z,32
2016-12-30T13:44:25.283Z,36
2016-12-30T13:45:36.015Z,32
2016-12-30T13:46:46.741Z,32
2016-12-30T13:47:56.271Z,32
2016-12-30T13:49:07.007Z,32
2016-12-30T13:50:17.746Z,28
2016-12-30T13:51:28.076Z,28
2016-12-30T13:52:38.405Z,32
2016-12-30T13:53:48.746Z,28
2016-12-30T13:54:59.487Z,28
2016-12-30T13:56:09.836Z,28
2016-12-30T13:57:20.591Z,28
2016-12-30T13:58:31.333Z,24
2016-12-30T13:59:42.066Z,28
2016-12-30T14:00:52.811Z,28
2016-12-30T14:02:03.180Z,28
2016-12-30T14:03:13.929Z,24
2016-12-30T14:04:24.287Z,24
2016-12-30T14:05:34.651Z,24
2016-12-30T14:06:45.065Z,28
2016-12-30T14:07:55.033Z,24
2016-12-30T14:09:04.976Z,24
2016-12-30T14:10:14.550Z,24
2016-12-30T14:11:25.266Z,20
2016-12-30T14:12:35.996Z,20
2016-12-30T14:13:46.728Z,24
2016-12-30T14:14:57.472Z,24
2016-12-30T14:16:07.813Z,20
2016-12-30T14:17:18.159Z,20
2016-12-30T14:18:28.089Z,20
2016-12-30T14:19:38.830Z,20
2016-12-30T14:20:49.183Z,20
2016-12-30T14:21:59.903Z,20
2016-12-30T14:23:09.839Z,16
2016-12-30T14:24:20.249Z,16
2016-12-30T14:25:30.578Z,16
2016-12-30T14:26:40.942Z,16
2016-12-30T14:27:51.292Z,16
2016-12-30T14:29:02.034Z,12
2016-12-30T14:30:12.777Z,16
2016-12-30T14:31:23.117Z,16
2016-12-30T14:32:33.842Z,12
2016-12-30T14:33:44.594Z,12
2016-12-30T14:34:55.334Z,12
2016-12-30T14:36:05.683Z,12
2016-12-30T14:37:16.012Z,12
2016-12-30T14:38:26.342Z,12
2016-12-30T14:39:37.231Z,12
2016-12-30T14:40:47.171Z,8
2016-12-30T14:41:57.942Z,8
2016-12-30T14:43:08.287Z,12
2016-12-30T14:44:19.013Z,8
2016-12-30T14:45:29.350Z,8
2016-12-30T14:46:40.096Z,8
2016-12-30T14:47:50.835Z,4
2016-12-30T14:49:01.617Z,8
2016-12-30T14:50:12.346Z,8
2016-12-30T14:51:22.757Z,4
2016-12-30T14:52:32.313Z,4
2016-12-30T14:53:42.275Z,4
2016-12-30T14:54:52.272Z,4
2016-12-30T14:56:03.037Z,4
2016-12-30T14:57:13.792Z,4
2016-12-30T14:58:24.565Z,4
2016-12-30T14:59:35.402Z,0
2016-12-30T15:00:46.160Z,4
2016-12-30T15:01:56.698Z,4
2016-12-30T15:03:06.746Z,4
2016-12-30T15:04:17.478Z,0
2016-12-30T15:05:27.431Z,0
2016-12-30T15:06:37.827Z,0
2016-12-30T15:07:48.573Z,4
2016-12-30T15:08:58.528Z,4
2016-12-30T15:10:08.965Z,0
2016-12-30T15:11:19.340Z,0
2016-12-30T15:12:29.814Z,0
2016-12-30T15:13:40.799Z,0
2016-12-30T15:14:50.800Z,0
2016-12-30T15:16:00.784Z,0
2016-12-30T15:17:10.765Z,0
2016-12-30T15:18:20.314Z,0
2016-12-30T15:19:31.044Z,0
2016-12-30T15:20:41.774Z,0
2016-12-30T15:21:52.503Z,0
2016-12-30T15:23:03.287Z,0
2016-12-30T15:24:13.310Z,0
2016-12-30T15:25:24.079Z,0
2016-12-30T15:26:34.423Z,0
2016-12-30T15:27:44.760Z,0
2016-12-30T15:28:55.560Z,0
2016-12-30T15:30:05.902Z,0
2016-12-30T15:31:15.902Z,0
2016-12-30T15:32:26.392Z,0
2016-12-30T15:33:37.141Z,0
2016-12-30T15:34:47.970Z,0
2016-12-30T15:35:58.383Z,0
2016-12-30T15:37:08.784Z,0
2016-12-30T15:38:19.119Z,0
2016-12-30T15:39:29.862Z,0
2016-12-30T15:40:40.233Z,0
2016-12-30T15:41:50.236Z,0
2016-12-30T15:43:00.172Z,0
2016-12-30T15:44:10.148Z,0
2016-12-30T15:45:20.954Z,0
2016-12-30T15:46:31.334Z,0
2016-12-30T15:47:42.125Z,0
2016-12-30T15:48:53.100Z,0
2016-12-30T15:50:04.093Z,0
2016-12-30T15:51:14.218Z,0
2016-12-30T15:52:24.986Z,0
2016-12-30T15:53:36.045Z,0
2016-12-30T15:54:46.131Z,0
2016-12-30T15:55:55.750Z,0
2016-12-30T15:57:06.650Z,0
2016-12-30T15:58:17.213Z,0
2016-12-30T15:59:28.179Z,0
2016-12-30T16:00:38.189Z,0
2016-12-30T16:01:48.681Z,0
2016-12-30T16:02:59.625Z,0
2016-12-30T16:04:10.800Z,0
2016-12-30T16:05:21.709Z,0
2016-12-30T16:06:32.122Z,0
2016-12-30T16:07:42.864Z,0
2016-12-30T16:08:53.859Z,0
2016-12-30T16:10:04.810Z,0
2016-12-30T16:11:15.229Z,0
2016-12-30T16:12:26.134Z,0
2016-12-30T16:13:36.963Z,0
2016-12-30T16:14:47.389Z,0
2016-12-30T16:15:58.141Z,0
2016-12-30T16:17:08.977Z,0
2016-12-30T16:18:19.527Z,0
2016-12-30T16:19:30.269Z,0
2016-12-30T16:20:41.142Z,0
2016-12-30T16:21:51.510Z,0
2016-12-30T16:23:01.886Z,0
2016-12-30T16:24:11.985Z,0
2016-12-30T16:25:21.592Z,0
2016-12-30T16:26:31.933Z,0
2016-12-30T16:27:42.420Z,0
2016-12-30T16:28:52.910Z,0
2016-12-30T16:30:03.371Z,0
2016-12-30T16:31:14.156Z,0
2016-12-30T16:32:25.525Z,0
2016-12-30T16:33:36.524Z,0
2016-12-30T16:34:47.262Z,0
2016-12-30T16:35:56.406Z,0
2016-12-30T16:37:06.503Z,0
2016-12-30T16:38:16.950Z,0
2016-12-30T16:39:27.253Z,0
2016-12-30T16:40:38.318Z,0
2016-12-30T16:41:49.348Z,0
2016-12-30T16:42:59.579Z,0
2016-12-30T16:44:10.681Z,0
2016-12-30T16:45:21.849Z,0
2016-12-30T16:46:32.744Z,0
2016-12-30T16:47:43.626Z,0
2016-12-30T16:48:55.091Z,0
2016-12-30T16:50:05.499Z,0
2016-12-30T16:51:16.447Z,0
2016-12-30T16:52:27.325Z,0
2016-12-30T16:53:38.246Z,0
2016-12-30T16:54:49.479Z,0